Time;durP1;ratioP1;P1;durP2;ratioP2;P2;SDS_P1;SDS_P2;PMS_P1;PMS_P2;Temp;Humidity;BMP_temperature;BMP_pressure;BME280_temperature;BME280_humidity;BME280_pressure;Samples;Min_cycle;Max_cycle;Signal;HPM_P1;HPM_P2
2022/12/16 00:00:40;;;;;;;20.27;13.23;;;;;;;-4.22;100.00;95079.22;5020275;28;20941;-74
2022/12/16 00:03:07;;;;;;;16.70;10.17;;;;;;;-4.14;100.00;95083.81;5022423;28;21001;-74
2022/12/16 00:05:36;;;;;;;25.17;14.07;;;;;;;-4.59;100.00;95023.63;5052550;28;20430;-74
2022/12/16 00:08:09;;;;;;;24.37;14.70;;;;;;;-4.39;100.00;95055.56;5052264;28;20443;-74
2022/12/16 00:10:51;;;;;;;25.60;13.53;;;;;;;-4.60;100.00;95016.16;5053921;28;20527;-74
2022/12/16 00:13:20;;;;;;;26.80;14.23;;;;;;;-4.24;100.00;95076.91;5052033;28;20481;-74
2022/12/16 00:15:47;;;;;;;25.63;13.13;;;;;;;-4.23;100.00;95067.38;5052128;28;20960;-74
2022/12/16 00:18:13;;;;;;;26.27;15.37;;;;;;;-4.40;100.00;95056.59;5052168;28;20437;-74
2022/12/16 00:20:48;;;;;;;15.80;10.37;;;;;;;-4.22;100.00;95074.06;5052153;28;20973;-74
2022/12/16 00:23:17;;;;;;;20.90;14.30;;;;;;;-4.35;100.00;95054.75;5052029;28;20476;-74
2022/12/16 00:25:45;;;;;;;21.00;15.63;;;;;;;-4.30;100.00;95072.00;5052176;28;20537;-74
2022/12/16 00:28:14;;;;;;;25.93;14.80;;;;;;;-4.24;100.00;95065.81;5053562;28;20521;-74
2022/12/16 00:30:42;;;;;;;22.80;13.03;;;;;;;-4.41;100.00;95034.38;5035326;28;20495;-74
2022/12/16 00:33:08;;;;;;;23.73;14.80;;;;;;;-4.47;100.00;95037.00;5052652;28;20494;-74
2022/12/16 00:35:35;;;;;;;20.13;13.67;;;;;;;-4.44;100.00;95040.84;5051926;28;20530;-73
2022/12/16 00:38:04;;;;;;;28.60;15.20;;;;;;;-4.36;100.00;95044.72;5035837;28;20482;-73
2022/12/16 00:40:34;;;;;;;18.73;12.83;;;;;;;-4.41;100.00;95032.59;5034757;28;20469;-73
2022/12/16 00:43:01;;;;;;;22.97;14.10;;;;;;;-4.42;100.00;95027.69;5031936;28;20475;-73
2022/12/16 00:45:28;;;;;;;22.93;15.17;;;;;;;-4.32;100.00;95054.22;5031949;28;20446;-73
2022/12/16 00:47:55;;;;;;;23.33;15.30;;;;;;;-4.29;100.00;95056.28;5031829;28;20819;-73
2022/12/16 00:50:22;;;;;;;21.37;13.87;;;;;;;-4.33;100.00;95044.19;5032104;28;20450;-74
2022/12/16 00:52:48;;;;;;;22.40;14.53;;;;;;;-4.23;100.00;95057.81;5030964;28;20445;-74
2022/12/16 00:55:17;;;;;;;20.67;14.43;;;;;;;-4.35;100.00;95044.44;5030638;28;20796;-74
2022/12/16 00:57:44;;;;;;;27.70;15.73;;;;;;;-4.54;100.00;95012.50;5035291;28;20445;-74
2022/12/16 01:00:13;;;;;;;25.47;14.90;;;;;;;-4.38;100.00;95039.03;5031916;28;20527;-74
2022/12/16 01:02:45;;;;;;;25.00;15.57;;;;;;;-4.31;100.00;95060.94;5041352;28;20512;-72
2022/12/16 01:05:14;;;;;;;23.40;14.83;;;;;;;-4.42;100.00;95049.09;5031775;28;21084;-72
2022/12/16 01:07:41;;;;;;;22.70;15.30;;;;;;;-4.46;100.00;95054.00;5032844;28;20439;-72
2022/12/16 01:10:09;;;;;;;29.37;17.17;;;;;;;-4.41;100.00;95062.75;5015015;28;20868;-72
2022/12/16 01:12:36;;;;;;;28.40;16.80;;;;;;;-4.43;100.00;95060.44;5031430;28;20544;-72
2022/12/16 01:15:06;;;;;;;24.70;15.23;;;;;;;-4.41;100.00;95060.94;5031314;28;20498;-73
2022/12/16 01:17:34;;;;;;;29.10;15.87;;;;;;;-4.60;100.00;95022.09;5031312;28;20442;-72
2022/12/16 01:20:01;;;;;;;28.27;17.87;;;;;;;-4.63;100.00;95029.56;5037409;28;20535;-72
2022/12/16 01:22:29;;;;;;;26.77;16.80;;;;;;;-4.57;100.00;95038.84;5050953;28;20918;-72
2022/12/16 01:24:56;;;;;;;27.23;14.63;;;;;;;-4.58;100.00;95020.00;5053238;28;20515;-73
2022/12/16 01:27:23;;;;;;;27.67;16.33;;;;;;;-4.56;100.00;95033.41;5051681;28;20793;-73
2022/12/16 01:29:50;;;;;;;27.10;16.57;;;;;;;-4.77;100.00;95027.56;5034574;28;20506;-73
2022/12/16 01:32:16;;;;;;;26.93;15.77;;;;;;;-4.75;100.00;95019.56;5050646;28;20916;-73
2022/12/16 01:34:43;;;;;;;26.97;15.63;;;;;;;-4.55;100.00;95052.22;5050921;28;20456;-73
2022/12/16 01:37:16;;;;;;;25.83;14.43;;;;;;;-4.60;100.00;95045.28;5035227;28;20535;-72
2022/12/16 01:39:44;;;;;;;23.60;14.90;;;;;;;-4.61;100.00;95051.47;5050570;28;20448;-72
2022/12/16 01:42:12;;;;;;;28.00;14.93;;;;;;;-4.81;100.00;95023.16;5051764;28;20980;-72
2022/12/16 01:44:44;;;;;;;40.97;17.83;;;;;;;-4.64;100.00;95044.28;5050453;28;21005;-72
2022/12/16 01:47:19;;;;;;;25.70;17.40;;;;;;;-4.73;100.00;95032.19;5050637;28;21046;-72
2022/12/16 01:50:00;;;;;;;29.43;17.77;;;;;;;-4.81;100.00;95021.38;5034016;28;20877;-72
2022/12/16 01:52:31;;;;;;;25.50;14.90;;;;;;;-4.73;100.00;95032.19;5050278;28;20503;-72
2022/12/16 01:55:14;;;;;;;32.93;17.73;;;;;;;-4.61;100.00;95050.72;5026827;28;20437;-73
2022/12/16 01:57:46;;;;;;;25.30;15.07;;;;;;;-4.76;100.00;95036.81;5030515;28;20472;-72
2022/12/16 02:00:13;;;;;;;28.10;17.70;;;;;;;-4.65;100.00;95044.53;5030825;28;20560;-73
2022/12/16 02:02:44;;;;;;;27.20;14.93;;;;;;;-4.59;100.00;95046.06;5040113;28;20805;-73
2022/12/16 02:05:21;;;;;;;25.13;14.60;;;;;;;-4.66;100.00;95050.72;5031537;28;20475;-73
2022/12/16 02:08:01;;;;;;;30.60;17.13;;;;;;;-4.68;100.00;95045.03;5030482;28;20935;-73
2022/12/16 02:10:41;;;;;;;36.10;20.27;;;;;;;-4.71;100.00;95043.00;5030152;28;20456;-73
2022/12/16 02:13:26;;;;;;;33.33;19.90;;;;;;;-4.73;100.00;95050.22;5031506;28;21047;-73
2022/12/16 02:15:55;;;;;;;37.77;20.50;;;;;;;-4.76;100.00;95044.56;5030479;28;20447;-73
2022/12/16 02:18:42;;;;;;;33.20;22.83;;;;;;;-4.87;100.00;95040.44;5031465;28;20430;-73
2022/12/16 02:21:16;;;;;;;43.80;22.67;;;;;;;-4.92;100.00;95019.84;5029901;28;20455;-73
2022/12/16 02:23:52;;;;;;;37.10;21.10;;;;;;;-4.82;100.00;95039.66;5031523;28;20831;-73
2022/12/16 02:26:32;;;;;;;35.43;22.53;;;;;;;-4.82;100.00;95044.81;5038239;28;20478;-75
2022/12/16 02:29:17;;;;;;;36.27;21.67;;;;;;;-4.82;100.00;95039.66;5043262;28;20458;-73
2022/12/16 02:31:59;;;;;;;44.23;25.00;;;;;;;-4.86;100.00;95036.06;5049979;28;20458;-73
2022/12/16 02:34:47;;;;;;;43.47;24.50;;;;;;;-4.81;100.00;95038.63;5051052;28;20971;-73
2022/12/16 02:37:35;;;;;;;38.47;21.60;;;;;;;-4.92;100.00;95037.88;5050073;28;20838;-73
2022/12/16 02:40:10;;;;;;;37.50;22.47;;;;;;;-4.90;100.00;95040.97;5051231;28;20914;-73
2022/12/16 02:42:48;;;;;;;39.73;22.90;;;;;;;-4.83;100.00;95033.72;5033223;28;20469;-73
2022/12/16 02:45:24;;;;;;;43.40;24.60;;;;;;;-4.98;100.00;95017.53;5049791;28;20428;-73
2022/12/16 02:47:50;;;;;;;44.97;27.50;;;;;;;-5.25;100.00;95010.88;5049845;28;20439;-73
2022/12/16 02:50:39;;;;;;;45.10;25.17;;;;;;;-4.94;100.00;95044.31;5048308;28;20552;-73
2022/12/16 02:53:08;;;;;;;44.13;26.53;;;;;;;-5.09;100.00;95027.84;5029787;28;20446;-73
2022/12/16 02:55:59;;;;;;;34.90;23.13;;;;;;;-4.88;100.00;95053.59;5031236;28;20438;-73
2022/12/16 02:58:29;;;;;;;45.33;24.30;;;;;;;-4.84;100.00;95052.81;5033793;28;20545;-73
2022/12/16 03:01:26;;;;;;;40.37;24.80;;;;;;;-4.87;100.00;95052.56;5040027;28;20440;-73
2022/12/16 03:04:10;;;;;;;39.00;22.43;;;;;;;-5.03;100.00;95020.91;5033921;28;20594;-73
2022/12/16 03:06:40;;;;;;;45.37;24.20;;;;;;;-4.88;100.00;95053.59;5017279;28;20524;-73
2022/12/16 03:09:09;;;;;;;42.60;23.80;;;;;;;-4.85;100.00;95060.81;5033931;28;20476;-73
2022/12/16 03:11:39;;;;;;;37.60;22.47;;;;;;;-4.90;100.00;95059.00;5017687;28;20460;-73
2022/12/16 03:14:07;;;;;;;37.63;22.80;;;;;;;-4.84;100.00;95067.50;5033880;28;20441;-73
2022/12/16 03:16:34;;;;;;;42.13;21.73;;;;;;;-4.93;100.00;95051.81;5033733;28;20468;-73
2022/12/16 03:19:06;;;;;;;42.43;19.73;;;;;;;-4.87;100.00;95068.78;5033733;28;20868;-73
2022/12/16 03:21:40;;;;;;;39.73;23.17;;;;;;;-4.97;100.00;95068.78;5033306;28;20931;-73
2022/12/16 03:24:09;;;;;;;34.80;19.97;;;;;;;-4.91;100.00;95067.78;5016925;28;20468;-73
2022/12/16 03:26:43;;;;;;;37.87;22.10;;;;;;;-4.90;100.00;95076.28;5034776;28;20512;-73
2022/12/16 03:29:15;;;;;;;42.30;20.10;;;;;;;-5.25;100.00;95025.53;5034199;28;20436;-73
2022/12/16 03:31:48;;;;;;;38.43;20.90;;;;;;;-4.93;100.00;95067.28;5054940;28;20487;-74
2022/12/16 03:34:31;;;;;;;40.13;20.97;;;;;;;-4.78;100.00;95072.41;5050514;28;20434;-73
2022/12/16 03:37:03;;;;;;;32.03;19.90;;;;;;;-5.03;100.00;95035.59;5033438;28;20934;-73
2022/12/16 03:39:33;;;;;;;41.20;20.50;;;;;;;-4.98;100.00;95069.06;5033167;28;20532;-73
2022/12/16 03:42:02;;;;;;;40.43;22.07;;;;;;;-5.15;100.00;95052.06;5033714;28;20452;-73
2022/12/16 03:44:29;;;;;;;29.67;17.27;;;;;;;-5.01;100.00;95078.09;5034316;28;20487;-73
2022/12/16 03:46:55;;;;;;;29.07;17.97;;;;;;;-5.15;100.00;95043.56;5035043;28;20505;-73
2022/12/16 03:49:22;;;;;;;28.03;15.50;;;;;;;-4.98;100.00;95081.94;5032934;28;20438;-73
2022/12/16 03:51:49;;;;;;;21.03;13.63;;;;;;;-5.03;100.00;95089.69;5032765;28;20551;-73
2022/12/16 03:54:17;;;;;;;27.30;14.93;;;;;;;-5.20;100.00;95061.63;5032961;28;20517;-73
2022/12/16 03:56:44;;;;;;;19.20;12.37;;;;;;;-4.99;100.00;95093.28;5033137;28;20432;-73
2022/12/16 03:59:11;;;;;;;22.27;12.20;;;;;;;-4.95;100.00;95097.66;5032965;28;20440;-73
2022/12/16 04:01:37;;;;;;;20.57;13.13;;;;;;;-5.05;100.00;95069.34;5043320;28;20491;-73
2022/12/16 04:04:04;;;;;;;21.67;13.13;;;;;;;-4.93;100.00;95074.22;5016866;28;20471;-73
2022/12/16 04:06:31;;;;;;;22.63;13.70;;;;;;;-4.94;100.00;95096.66;5032769;28;20927;-73
2022/12/16 04:08:58;;;;;;;20.93;12.70;;;;;;;-4.91;100.00;95096.13;5032837;28;20913;-73
2022/12/16 04:25:25;;;;;;;20.03;11.60;;;;;;;-4.97;100.00;95107.44;5032336;28;20820;-73
2022/12/16 04:27:52;;;;;;;19.30;11.53;;;;;;;-4.97;100.00;95104.09;5048920;28;20447;-73
2022/12/16 04:30:20;;;;;;;17.60;10.97;;;;;;;-5.13;100.00;95078.34;5052155;28;20451;-73
